Meath Environmental Platform

Observations for Trim Patrick St

Time AQI Temp °C Hum % Pres Pa CO μg/m³ H₂S μg/m³ NO μg/m³ NO₂ μg/m³ O₃ μg/m³ SO₂ μg/m³ PM1 μg/m³ PM2.5 μg/m³ PM10 μg/m³
Tuesday 4 August 2026
20:48 2 20.3 63 78,263 0 6.6 1.57 13.08 70.61 2.33 2 5.58 6.14
20:47 2 20.3 63 78,295 0 8.92 1.79 14.61 67.56 2.6 2.86 6.31 6.94
20:46 2 20.4 63 78,277 0 9.42 1.28 18.74 65.74 2.75 2.86 7.04 7.74
20:45 2 20.4 64 78,120 0 10.15 1.3 22.88 66.78 2.91 3.71 7.02 7.73
20:44 2 20.5 64 77,968 0 8.97 1.47 19.54 71.29 2.63 4.57 7.77 8.54
20:43 2 20.5 63 77,817 0 9.23 1.29 14.83 70.14 2.89 3.71 7.81 8.59
20:42 2 20.6 63 77,679 0 9.62 1.34 14.08 70.36 3.01 3.71 7.07 7.77
20:41 2 20.6 63 77,540 0 9.52 1.72 20.88 67.01 2.77 3.71 7.79 8.57
20:40 2 20.6 63 77,345 0 9.46 1.43 19.8 73.01 2.65 2.86 7.07 7.77
20:39 2 20.7 63 77,197 0 9.44 1.32 17.35 74.23 2.91 2.86 6.36 6.99
20:38 2 20.7 63 77,070 0 9.36 1.37 14.09 69.86 3.44 3.71 7.81 8.6
20:37 2 20.8 62 76,967 0 10.25 1.34 16.95 70.47 3.21 4.57 8.57 9.43
20:36 2 20.8 62 76,855 0 9.75 1.3 18.56 70.42 2.54 2.86 6.37 7.01
20:35 2 20.9 62 76,739 0 9.14 1.8 19.61 72.75 3.08 2.86 7.1 7.81
20:34 2 20.9 62 76,635 0 10.22 2.14 18.21 67.83 3.14 2.86 7.13 7.85
20:33 2 20.9 62 76,529 0 10.17 2.42 21.53 63.42 3.73 2.86 6.39 7.03
20:32 2 21 62 76,387 0 9.69 2.1 16.15 74.09 3.2 3.71 7.86 8.65
20:31 2 21.1 61 76,275 0 9.93 2.28 18.42 71.72 3.2 2 7.18 7.9
20:30 2 21.1 62 76,191 0 10.53 1.42 19.77 70.29 3.75 2.86 7.14 7.85
20:29 2 21.1 62 76,085 0 11.17 1.32 16.18 68.52 4.15 2 6.43 7.07